Time;durP1;ratioP1;P1;durP2;ratioP2;P2;SDS_P1;SDS_P2;PMS_P1;PMS_P2;Temp;Humidity;BMP_temperature;BMP_pressure;BME280_temperature;BME280_humidity;BME280_pressure;Samples;Min_cycle;Max_cycle;Signal;HPM_P1;HPM_P2
2023/03/21 00:02:23;;;;;;;7.23;4.80;;;;;;;9.82;93.02;98401.84;5070621;28;20235;-76
2023/03/21 00:04:50;;;;;;;5.77;4.90;;;;;;;9.80;93.25;98392.31;5070913;28;20215;-77
2023/03/21 00:07:17;;;;;;;6.00;5.20;;;;;;;9.76;93.50;98396.06;5070616;28;20228;-77
2023/03/21 00:09:44;;;;;;;7.00;5.33;;;;;;;9.70;94.21;98396.44;5070411;28;20583;-77
2023/03/21 00:12:11;;;;;;;5.90;4.90;;;;;;;9.63;95.79;98400.41;5070748;28;20208;-77
2023/03/21 00:14:38;;;;;;;7.50;5.37;;;;;;;9.57;97.00;98400.78;5070584;28;20620;-77
2023/03/21 00:17:04;;;;;;;6.93;5.63;;;;;;;9.50;98.92;98404.75;5070695;28;20237;-77
2023/03/21 00:19:31;;;;;;;6.87;5.00;;;;;;;9.53;99.18;98401.91;5070201;28;20211;-77
2023/03/21 00:22:01;;;;;;;6.33;5.17;;;;;;;9.52;98.78;98392.28;5070435;28;20261;-77
2023/03/21 00:24:27;;;;;;;6.77;5.70;;;;;;;9.57;98.26;98392.88;5070556;28;20207;-77
2023/03/21 00:26:56;;;;;;;7.03;5.43;;;;;;;9.53;98.22;98392.22;5070183;28;20236;-77
2023/03/21 00:29:23;;;;;;;7.57;5.70;;;;;;;9.49;98.40;98387.22;5070098;28;20645;-77
2023/03/21 00:31:49;;;;;;;7.00;5.40;;;;;;;9.48;98.22;98382.88;5070556;28;20214;-77
2023/03/21 00:34:16;;;;;;;6.50;5.50;;;;;;;9.51;98.37;98382.69;5070407;28;20654;-77
2023/03/21 00:36:42;;;;;;;8.43;6.03;;;;;;;9.57;98.35;98374.41;5070299;28;20597;-77
2023/03/21 00:39:10;;;;;;;5.47;4.87;;;;;;;9.55;98.45;98371.84;5070026;28;20574;-76
2023/03/21 00:41:37;;;;;;;6.83;4.87;;;;;;;9.55;98.89;98365.75;5070093;28;20231;-77
2023/03/21 00:44:03;;;;;;;7.17;5.30;;;;;;;9.52;98.82;98365.91;5070450;28;20207;-77
2023/03/21 00:46:30;;;;;;;5.93;4.80;;;;;;;9.51;98.39;98359.81;5070405;28;20216;-76
2023/03/21 00:48:56;;;;;;;7.10;5.33;;;;;;;9.49;98.30;98360.84;5070376;28;20218;-77
2023/03/21 00:51:25;;;;;;;6.87;5.63;;;;;;;9.46;98.28;98355.72;5069888;28;20203;-77
2023/03/21 00:53:54;;;;;;;6.83;5.47;;;;;;;9.49;98.74;98360.84;5073332;28;20311;-77
2023/03/21 00:56:24;;;;;;;5.47;4.97;;;;;;;9.47;99.18;98353.00;5073760;28;20615;-76
2023/03/21 00:58:51;;;;;;;6.90;5.53;;;;;;;9.45;100.00;98354.03;5073746;28;20725;-77
2023/03/21 01:01:18;;;;;;;7.50;5.13;;;;;;;9.46;99.81;98350.44;5073521;28;20231;-77
2023/03/21 01:03:49;;;;;;;5.70;4.90;;;;;;;9.42;98.91;98346.31;5073950;28;20211;-77
2023/03/21 01:06:18;;;;;;;6.60;5.20;;;;;;;9.38;98.49;98348.31;5073431;28;20222;-76
2023/03/21 01:08:45;;;;;;;6.93;5.70;;;;;;;9.38;98.12;98347.44;5073397;28;20246;-76
2023/03/21 01:11:14;;;;;;;6.80;5.77;;;;;;;9.37;97.90;98340.47;5073647;28;20209;-76
2023/03/21 01:13:42;;;;;;;8.07;5.77;;;;;;;9.37;97.77;98343.13;5073837;28;20218;-77
2023/03/21 01:16:10;;;;;;;7.50;5.77;;;;;;;9.39;97.51;98343.84;5073648;28;20606;-76
2023/03/21 01:18:38;;;;;;;8.97;5.47;;;;;;;9.37;97.30;98341.31;5073275;28;20231;-76
2023/03/21 01:21:08;;;;;;;7.20;5.40;;;;;;;9.35;97.33;98342.34;5072925;28;20217;-76
2023/03/21 01:23:34;;;;;;;9.00;5.20;;;;;;;9.34;97.39;98340.66;5073526;28;20202;-76
2023/03/21 01:26:01;;;;;;;7.60;5.47;;;;;;;9.29;97.87;98345.34;5073302;28;20586;-76
2023/03/21 01:28:29;;;;;;;6.07;5.30;;;;;;;9.27;98.25;98340.19;5073058;28;20260;-76
2023/03/21 01:30:57;;;;;;;7.53;5.60;;;;;;;9.21;99.89;98347.63;5073075;28;20211;-76
2023/03/21 01:33:24;;;;;;;8.00;5.70;;;;;;;9.22;100.00;98344.03;5073165;28;20207;-76
2023/03/21 01:35:50;;;;;;;6.80;5.40;;;;;;;9.20;100.00;98340.66;5072856;28;20206;-76
2023/03/21 01:38:17;;;;;;;7.27;5.83;;;;;;;9.19;100.00;98338.97;5073133;28;20493;-76
2023/03/21 01:40:45;;;;;;;7.80;5.70;;;;;;;9.15;100.00;98345.34;5072711;28;20222;-76
2023/03/21 01:43:21;;;;;;;7.87;5.30;;;;;;;9.17;100.00;98332.94;5073015;28;20227;-76
2023/03/21 01:46:20;;;;;;;8.33;5.50;;;;;;;9.12;100.00;98335.00;5073086;28;20211;-76
2023/03/21 01:48:50;;;;;;;6.90;4.80;;;;;;;9.11;100.00;98339.41;5073118;28;20191;-76
2023/03/21 01:51:17;;;;;;;6.20;5.00;;;;;;;9.08;100.00;98339.59;5072482;28;20209;-76
2023/03/21 01:53:46;;;;;;;5.97;5.13;;;;;;;9.09;100.00;98336.03;5072860;28;20238;-76
2023/03/21 01:56:17;;;;;;;7.27;4.97;;;;;;;9.08;100.00;98330.84;5072734;28;20219;-77
2023/03/21 01:58:45;;;;;;;7.53;5.50;;;;;;;9.09;100.00;98335.16;5072390;28;20402;-76
2023/03/21 02:01:14;;;;;;;6.63;5.10;;;;;;;9.06;100.00;98325.66;5072335;28;20218;-76
2023/03/21 02:03:49;;;;;;;5.30;4.80;;;;;;;9.10;100.00;98318.41;5071881;28;20295;-76
2023/03/21 02:06:20;;;;;;;7.77;5.07;;;;;;;9.08;100.00;98322.94;5072492;28;20209;-76
2023/03/21 02:08:47;;;;;;;6.80;5.33;;;;;;;9.05;100.00;98308.13;5072697;28;20368;-77
2023/03/21 02:11:15;;;;;;;6.57;4.83;;;;;;;9.05;100.00;98317.84;5072186;28;20227;-76
2023/03/21 02:13:41;;;;;;;5.73;4.67;;;;;;;9.05;100.00;98313.41;5072240;28;20665;-76
2023/03/21 02:16:17;;;;;;;6.47;4.77;;;;;;;9.05;100.00;98318.69;5072203;28;20213;-76
2023/03/21 02:18:53;;;;;;;6.40;5.00;;;;;;;9.06;100.00;98303.72;5072441;28;20234;-76
2023/03/21 02:21:57;;;;;;;5.87;4.60;;;;;;;9.06;100.00;98311.63;5071907;28;20223;-76
2023/03/21 02:24:48;;;;;;;6.43;4.67;;;;;;;9.02;100.00;98310.13;5072683;28;20208;-77
2023/03/21 02:27:17;;;;;;;5.27;4.77;;;;;;;8.99;100.00;98312.94;5072036;28;20243;-76
2023/03/21 02:30:23;;;;;;;6.77;4.80;;;;;;;8.99;100.00;98305.88;5071773;28;20234;-76
2023/03/21 02:33:10;;;;;;;6.80;5.00;;;;;;;9.00;100.00;98312.00;5072029;28;20209;-77
2023/03/21 02:36:05;;;;;;;6.73;4.60;;;;;;;8.98;100.00;98301.53;5071921;28;20317;-77
2023/03/21 02:38:38;;;;;;;7.57;4.90;;;;;;;8.92;100.00;98307.19;5071829;28;20254;-76
2023/03/21 02:41:13;;;;;;;5.03;4.53;;;;;;;8.90;100.00;98308.22;5071833;28;20217;-76
2023/03/21 02:43:45;;;;;;;7.93;4.63;;;;;;;8.89;100.00;98301.25;5072006;28;20407;-76
2023/03/21 02:46:16;;;;;;;5.53;4.80;;;;;;;8.85;100.00;98299.72;5071914;28;20206;-76
2023/03/21 02:48:49;;;;;;;6.80;4.93;;;;;;;8.83;100.00;98299.84;5071823;28;20226;-76
2023/03/21 02:51:19;;;;;;;8.13;5.17;;;;;;;8.79;100.00;98297.44;5071798;28;20233;-76
2023/03/21 02:53:51;;;;;;;7.80;4.73;;;;;;;8.79;100.00;98294.81;5071966;28;20211;-77
2023/03/21 02:56:19;;;;;;;5.70;4.77;;;;;;;8.79;100.00;98300.09;5071630;28;20218;-76
2023/03/21 02:58:46;;;;;;;8.07;5.47;;;;;;;8.76;100.00;98300.28;5071691;28;20681;-76
2023/03/21 03:01:13;;;;;;;5.40;4.67;;;;;;;8.73;100.00;98297.81;5071317;28;20212;-77
2023/03/21 03:03:39;;;;;;;6.20;4.70;;;;;;;8.71;100.00;98292.66;5071742;28;20235;-76
2023/03/21 03:06:15;;;;;;;5.87;4.67;;;;;;;8.68;100.00;98291.97;5071665;28;20234;-76
2023/03/21 03:08:59;;;;;;;6.60;5.40;;;;;;;8.64;100.00;98295.75;5071405;28;20665;-76
2023/03/21 03:11:28;;;;;;;6.03;4.87;;;;;;;8.60;100.00;98291.56;5071215;28;20594;-76
2023/03/21 03:14:11;;;;;;;6.13;5.23;;;;;;;8.58;100.00;98286.38;5071268;28;20677;-76
2023/03/21 03:16:43;;;;;;;5.30;4.77;;;;;;;8.58;100.00;98280.28;5071130;28;20240;-76
2023/03/21 03:19:17;;;;;;;6.27;4.83;;;;;;;8.60;100.00;98283.69;5071096;28;20218;-76
2023/03/21 03:21:49;;;;;;;6.10;4.83;;;;;;;8.58;100.00;98286.38;5071624;28;20611;-76
2023/03/21 03:24:22;;;;;;;5.93;4.33;;;;;;;8.58;100.00;98280.28;5071172;28;20218;-76
2023/03/21 03:26:55;;;;;;;5.17;4.47;;;;;;;8.57;100.00;98289.13;5071094;28;20230;-76
2023/03/21 03:29:23;;;;;;;6.07;4.60;;;;;;;8.54;100.00;98286.66;5070900;28;20207;-76
2023/03/21 03:31:57;;;;;;;6.57;4.63;;;;;;;8.53;100.00;98290.25;5071086;28;20211;-76
2023/03/21 03:34:28;;;;;;;6.47;4.47;;;;;;;8.52;100.00;98288.56;5071144;28;20210;-76
2023/03/21 03:36:59;;;;;;;7.10;5.47;;;;;;;8.52;100.00;98285.91;5071218;28;20228;-76
2023/03/21 03:39:33;;;;;;;4.97;4.20;;;;;;;8.50;100.00;98287.81;5071005;28;20213;-76
2023/03/21 03:42:05;;;;;;;6.07;4.97;;;;;;;8.47;100.00;98287.97;5071031;28;20233;-76
2023/03/21 03:44:32;;;;;;;5.40;4.83;;;;;;;8.47;100.00;98277.44;5071124;28;20213;-76
2023/03/21 03:47:02;;;;;;;5.97;4.90;;;;;;;8.46;100.00;98279.22;5070774;28;20223;-76
2023/03/21 03:49:33;;;;;;;6.13;4.57;;;;;;;8.46;100.00;98270.47;5070573;28;20205;-76
2023/03/21 03:52:04;;;;;;;5.60;4.30;;;;;;;8.45;100.00;98276.69;5071075;28;20210;-76
2023/03/21 03:54:36;;;;;;;6.17;4.73;;;;;;;8.46;100.00;98275.75;5071037;28;20203;-77
2023/03/21 03:57:04;;;;;;;4.97;4.17;;;;;;;8.45;100.00;98274.88;5071208;28;20243;-76
2023/03/21 03:59:33;;;;;;;5.83;4.87;;;;;;;8.45;100.00;98268.78;5070558;28;20274;-77
2023/03/21 04:02:00;;;;;;;6.23;4.83;;;;;;;8.47;100.00;98266.91;5070652;28;20231;-77
2023/03/21 04:04:27;;;;;;;6.67;4.80;;;;;;;8.51;100.00;98274.53;5070888;28;20211;-76
2023/03/21 04:06:54;;;;;;;7.57;5.30;;;;;;;8.51;100.00;98266.63;5070649;28;20278;-76
2023/03/21 04:09:21;;;;;;;6.23;5.63;;;;;;;8.54;100.00;98271.72;5070584;28;20703;-77
2023/03/21 04:11:49;;;;;;;6.10;5.10;;;;;;;8.57;100.00;98268.91;5070649;28;20221;-76
2023/03/21 04:14:16;;;;;;;6.80;5.53;;;;;;;8.55;100.00;98267.28;5070685;28;20221;-76
2023/03/21 04:16:42;;;;;;;7.53;5.23;;;;;;;8.51;100.00;98268.44;5070557;28;20326;-76
2023/03/21 04:19:09;;;;;;;5.77;5.03;;;;;;;8.45;100.00;98274.06;5070527;28;20569;-76
2023/03/21 04:21:35;;;;;;;6.70;5.10;;;;;;;8.39;100.00;98274.41;5070748;28;20207;-76
2023/03/21 04:24:02;;;;;;;6.97;5.43;;;;;;;8.27;100.00;98265.41;5070468;28;20230;-76
2023/03/21 04:26:32;;;;;;;6.47;4.77;;;;;;;8.19;100.00;98266.75;5070539;28;20669;-76
2023/03/21 04:29:00;;;;;;;6.80;5.00;;;;;;;8.10;100.00;98277.81;5074217;28;20210;-76
2023/03/21 04:31:29;;;;;;;7.30;4.87;;;;;;;8.05;100.00;98274.59;5074591;28;20211;-77
2023/03/21 04:33:56;;;;;;;5.63;4.73;;;;;;;8.03;100.00;98268.59;5074498;28;20235;-77
2023/03/21 04:36:26;;;;;;;5.23;4.63;;;;;;;8.00;100.00;98264.34;5074239;28;20207;-77
2023/03/21 04:38:53;;;;;;;6.80;5.40;;;;;;;7.98;100.00;98266.22;5074344;28;20209;-76
2023/03/21 04:41:20;;;;;;;5.97;5.37;;;;;;;8.01;100.00;98270.44;5074030;28;20210;-76
2023/03/21 04:43:47;;;;;;;8.27;6.00;;;;;;;7.96;100.00;98259.34;5074340;28;20629;-76
2023/03/21 04:46:15;;;;;;;6.07;4.93;;;;;;;7.88;100.00;98266.81;5074253;28;20207;-77
2023/03/21 04:48:41;;;;;;;6.67;4.73;;;;;;;7.74;100.00;98262.34;5074132;28;20399;-76
2023/03/21 04:51:08;;;;;;;7.13;4.97;;;;;;;7.62;100.00;98259.53;5073633;28;20708;-76
2023/03/21 04:53:34;;;;;;;9.43;5.80;;;;;;;7.55;100.00;98268.69;5073992;28;20209;-76
2023/03/21 04:56:01;;;;;;;7.60;5.23;;;;;;;7.54;100.00;98261.75;5073900;28;20666;-77
2023/03/21 04:58:27;;;;;;;8.13;5.80;;;;;;;7.55;100.00;98268.69;5073796;28;20231;-76
2023/03/21 05:00:54;;;;;;;6.70;5.47;;;;;;;7.58;100.00;98252.72;5073714;28;20252;-76
2023/03/21 05:03:21;;;;;;;8.27;5.33;;;;;;;7.60;100.00;98266.66;5073936;28;20246;-76
2023/03/21 05:05:48;;;;;;;7.83;5.33;;;;;;;7.63;100.00;98261.22;5073890;28;20224;-76
2023/03/21 05:08:16;;;;;;;5.50;4.90;;;;;;;7.67;100.00;98268.03;5073535;28;20235;-76
2023/03/21 05:10:42;;;;;;;5.20;4.70;;;;;;;7.73;100.00;98249.25;5073320;28;20227;-76
2023/03/21 05:13:09;;;;;;;7.20;4.50;;;;;;;7.81;100.00;98254.94;5073770;28;20218;-76
2023/03/21 05:15:35;;;;;;;5.23;4.73;;;;;;;7.86;100.00;98258.16;5073615;28;20708;-76
2023/03/21 05:18:09;;;;;;;5.77;4.80;;;;;;;7.89;100.00;98252.75;5073552;28;20591;-76
2023/03/21 05:20:41;;;;;;;5.90;5.13;;;;;;;7.98;100.00;98260.09;5073240;28;20252;-76
2023/03/21 05:23:09;;;;;;;6.47;5.30;;;;;;;8.02;100.00;98259.00;5073723;28;20318;-76
2023/03/21 05:25:36;;;;;;;5.90;5.17;;;;;;;8.06;100.00;98265.75;5073755;28;20296;-76
2023/03/21 05:28:03;;;;;;;5.77;4.83;;;;;;;8.06;100.00;98260.50;5078750;22;20774;-77
2023/03/21 05:30:30;;;;;;;6.40;4.80;;;;;;;8.09;100.00;98260.34;5052802;28;20216;-76
2023/03/21 05:32:57;;;;;;;6.63;5.00;;;;;;;8.08;100.00;98272.66;5053020;28;20203;-77
2023/03/21 05:35:23;;;;;;;5.40;4.67;;;;;;;8.06;100.00;98265.75;5053130;28;20211;-76
2023/03/21 05:37:51;;;;;;;7.50;5.33;;;;;;;8.06;100.00;98268.41;5053409;28;20231;-77
2023/03/21 05:40:19;;;;;;;5.60;4.77;;;;;;;8.07;100.00;98262.19;5053057;28;20689;-77
2023/03/21 05:42:46;;;;;;;6.47;5.07;;;;;;;8.05;100.00;98264.94;5053328;28;20238;-78
2023/03/21 05:45:13;;;;;;;6.57;4.90;;;;;;;8.12;100.00;98271.53;5054977;28;20269;-75
2023/03/21 05:47:39;;;;;;;5.60;5.00;;;;;;;8.16;100.00;98266.94;5054864;28;20231;-77
2023/03/21 05:50:07;;;;;;;8.90;5.30;;;;;;;8.11;100.00;98267.22;5054294;28;20219;-77
2023/03/21 05:52:33;;;;;;;6.87;5.07;;;;;;;8.17;100.00;98269.50;5053668;28;20207;-76
2023/03/21 05:55:02;;;;;;;6.30;5.30;;;;;;;8.21;100.00;98268.41;5053241;28;20207;-76
2023/03/21 05:57:28;;;;;;;7.10;5.87;;;;;;;8.26;100.00;98262.91;5053117;28;20287;-76
2023/03/21 05:59:55;;;;;;;6.90;5.73;;;;;;;8.35;100.00;98272.88;5052864;28;20211;-77
2023/03/21 06:02:21;;;;;;;7.83;5.20;;;;;;;8.42;100.00;98268.94;5052848;28;20208;-77
2023/03/21 06:04:48;;;;;;;6.00;5.37;;;;;;;8.49;100.00;98272.91;5052933;28;20673;-79
2023/03/21 06:07:14;;;;;;;7.40;5.50;;;;;;;8.55;100.00;98269.91;5052978;28;20247;-78
2023/03/21 06:09:41;;;;;;;6.50;4.80;;;;;;;8.60;100.00;98268.72;5052597;28;20226;-76
2023/03/21 06:12:09;;;;;;;5.07;4.53;;;;;;;8.65;100.00;98271.09;5052124;28;20692;-76
2023/03/21 06:14:35;;;;;;;6.90;5.10;;;;;;;8.70;100.00;98271.66;5052589;28;20199;-76
2023/03/21 06:17:02;;;;;;;6.37;5.03;;;;;;;8.70;100.00;98274.31;5052424;28;20217;-76
2023/03/21 06:19:28;;;;;;;6.70;5.13;;;;;;;8.74;100.00;98275.78;5052561;28;20728;-76
2023/03/21 06:21:55;;;;;;;6.77;5.83;;;;;;;8.69;100.00;98272.63;5052740;28;20230;-76
2023/03/21 06:24:21;;;;;;;5.67;5.10;;;;;;;8.66;100.00;98278.03;5052426;28;20230;-77
2023/03/21 06:26:48;;;;;;;6.73;5.17;;;;;;;8.64;100.00;98269.41;5052331;28;20211;-76
2023/03/21 06:29:16;;;;;;;6.00;5.17;;;;;;;8.65;100.00;98274.59;5051891;28;20234;-77
2023/03/21 06:31:42;;;;;;;7.03;5.37;;;;;;;8.60;100.00;98279.25;5052547;28;20647;-77
2023/03/21 06:34:10;;;;;;;10.23;6.23;;;;;;;8.65;100.00;98271.09;5052414;28;20206;-77
2023/03/21 06:36:37;;;;;;;6.33;5.23;;;;;;;8.61;100.00;98269.56;5052480;28;20214;-77
2023/03/21 06:39:04;;;;;;;6.23;5.33;;;;;;;8.57;100.00;98273.34;5051964;28;20236;-77
2023/03/21 06:41:31;;;;;;;7.50;5.97;;;;;;;8.57;100.00;98270.69;5052047;28;20210;-76
2023/03/21 06:43:58;;;;;;;7.10;5.63;;;;;;;8.52;100.00;98270.13;5052060;28;20230;-76
2023/03/21 06:46:25;;;;;;;8.10;6.63;;;;;;;8.50;100.00;98267.56;5052396;28;20221;-77
2023/03/21 06:48:52;;;;;;;10.60;6.77;;;;;;;8.47;100.00;98267.75;5052148;28;20241;-77
2023/03/21 06:51:18;;;;;;;8.27;7.00;;;;;;;8.55;100.00;98269.91;5049548;28;20803;-77
2023/03/21 06:53:45;;;;;;;9.43;6.10;;;;;;;8.53;100.00;98271.81;5050708;28;20689;-75
2023/03/21 06:56:14;;;;;;;8.33;6.83;;;;;;;8.51;100.00;98269.25;5051978;28;20293;-77
2023/03/21 06:58:41;;;;;;;7.87;6.70;;;;;;;8.51;100.00;98266.63;5051687;28;20232;-75
2023/03/21 07:01:08;;;;;;;7.47;6.07;;;;;;;8.53;100.00;98267.41;5051434;28;20215;-75
2023/03/21 07:03:36;;;;;;;9.93;7.13;;;;;;;8.57;100.00;98270.69;5051946;28;20232;-76
2023/03/21 07:06:10;;;;;;;9.53;7.10;;;;;;;8.60;100.00;98271.38;5051854;28;20257;-77
2023/03/21 07:08:37;;;;;;;9.10;6.87;;;;;;;8.58;100.00;98269.75;5051949;28;20224;-77
2023/03/21 07:11:04;;;;;;;10.27;7.23;;;;;;;8.65;100.00;98271.09;5051305;28;20206;-76
2023/03/21 07:13:31;;;;;;;10.40;7.73;;;;;;;8.77;100.00;98275.63;5051767;28;20214;-77
2023/03/21 07:15:58;;;;;;;11.40;7.87;;;;;;;8.91;100.00;98273.00;5051795;28;20214;-76
2023/03/21 07:18:24;;;;;;;11.70;7.67;;;;;;;9.05;100.00;98259.84;5051475;28;20230;-76
2023/03/21 07:20:52;;;;;;;7.43;6.27;;;;;;;9.18;100.00;98266.06;5051453;28;20281;-76
2023/03/21 07:23:20;;;;;;;13.63;6.57;;;;;;;9.25;100.00;98267.38;5051537;28;20261;-76
2023/03/21 07:25:48;;;;;;;8.30;6.67;;;;;;;9.35;100.00;98257.94;5051542;28;20211;-75
2023/03/21 07:28:14;;;;;;;7.90;6.27;;;;;;;9.45;100.00;98264.34;5051269;28;20235;-77
2023/03/21 07:30:41;;;;;;;6.93;6.23;;;;;;;9.58;100.00;98265.25;5049463;28;20207;-75
2023/03/21 07:33:07;;;;;;;7.53;6.37;;;;;;;9.67;100.00;98265.53;5051268;28;20600;-77
2023/03/21 07:35:35;;;;;;;8.63;6.40;;;;;;;9.79;100.00;98264.75;5051612;28;20250;-76
2023/03/21 07:38:04;;;;;;;8.37;6.33;;;;;;;9.82;100.00;98258.44;5049040;28;20233;-76
2023/03/21 07:40:30;;;;;;;9.77;5.90;;;;;;;10.04;100.00;98259.63;5050726;28;20204;-77
2023/03/21 07:42:57;;;;;;;9.10;6.43;;;;;;;10.14;100.00;98265.13;5051337;28;20229;-77
2023/03/21 07:45:25;;;;;;;8.80;5.70;;;;;;;10.19;100.00;98257.75;5048931;28;20207;-77
2023/03/21 07:47:52;;;;;;;6.40;5.20;;;;;;;10.17;100.00;98257.88;5051290;28;20319;-76
2023/03/21 07:50:19;;;;;;;6.20;5.57;;;;;;;10.21;100.00;98258.53;5051132;28;20210;-75
2023/03/21 07:52:46;;;;;;;5.90;5.17;;;;;;;10.25;100.00;98260.00;5048593;28;20231;-75
2023/03/21 07:55:16;;;;;;;6.43;5.27;;;;;;;10.31;100.00;98260.47;5051511;28;20200;-75
2023/03/21 07:57:42;;;;;;;6.70;5.47;;;;;;;10.34;100.00;98262.88;5051083;28;20228;-75
2023/03/21 08:00:11;;;;;;;8.03;5.80;;;;;;;10.56;100.00;98259.66;5050896;28;20268;-75
2023/03/21 08:02:38;;;;;;;6.30;5.40;;;;;;;10.74;98.21;98250.50;5052742;28;20219;-76
2023/03/21 08:05:05;;;;;;;6.97;5.37;;;;;;;10.74;97.13;98250.50;5055148;28;20231;-78
2023/03/21 08:07:31;;;;;;;6.53;5.13;;;;;;;11.00;97.89;98252.22;5055635;28;20678;-75
2023/03/21 08:09:59;;;;;;;8.53;5.93;;;;;;;11.07;95.78;98248.19;5055091;28;20211;-74
2023/03/21 08:12:26;;;;;;;6.67;5.40;;;;;;;11.08;95.47;98239.31;5054896;28;20214;-75
2023/03/21 08:14:53;;;;;;;6.72;5.88;;;;;;;11.35;94.16;98240.00;5052782;28;20436;-77
2023/03/21 08:17:19;;;;;;;7.33;4.90;;;;;;;11.47;91.43;98223.25;5053383;28;20228;-76
2023/03/21 08:19:46;;;;;;;9.50;5.30;;;;;;;11.53;90.36;98236.06;5053972;28;20212;-75
2023/03/21 08:22:12;;;;;;;7.20;4.70;;;;;;;11.71;89.22;98232.13;5054344;28;20210;-76
2023/03/21 08:24:39;;;;;;;5.50;4.33;;;;;;;11.74;87.92;98231.94;5053624;28;20250;-75
2023/03/21 08:27:06;;;;;;;5.50;4.40;;;;;;;11.67;85.82;98220.09;5054603;28;20218;-77
2023/03/21 08:29:39;;;;;;;7.03;4.87;;;;;;;11.70;85.58;98217.22;5055177;28;20724;-76
2023/03/21 08:32:06;;;;;;;7.97;4.03;;;;;;;11.75;86.01;98217.72;5054924;28;20214;-75
2023/03/21 08:34:32;;;;;;;5.63;4.03;;;;;;;11.79;85.56;98216.56;5054610;28;20212;-74
2023/03/21 08:36:59;;;;;;;6.30;4.03;;;;;;;11.90;85.31;98213.94;5054859;28;20252;-75
2023/03/21 08:39:26;;;;;;;4.33;3.60;;;;;;;12.06;85.88;98214.53;5054502;28;20585;-75
2023/03/21 08:41:52;;;;;;;5.13;3.83;;;;;;;12.09;83.59;98204.53;5054849;28;20215;-76
2023/03/21 08:44:20;;;;;;;6.60;4.30;;;;;;;12.25;82.04;98199.81;5054503;28;20606;-75
2023/03/21 08:46:48;;;;;;;4.67;4.13;;;;;;;12.28;80.78;98199.56;5054464;28;20691;-75
2023/03/21 08:49:15;;;;;;;8.80;4.90;;;;;;;12.50;81.59;98204.09;5054207;28;20222;-75
2023/03/21 08:51:44;;;;;;;6.13;4.17;;;;;;;12.60;81.94;98191.84;5054834;28;20221;-75
2023/03/21 08:54:18;;;;;;;4.67;3.97;;;;;;;12.61;78.35;98183.78;5053372;28;20638;-75
2023/03/21 08:56:45;;;;;;;4.87;3.37;;;;;;;12.62;76.21;98176.66;5052566;28;20208;-75
2023/03/21 08:59:11;;;;;;;5.93;4.17;;;;;;;12.82;77.86;98181.25;5053993;28;20208;-76
2023/03/21 09:01:38;;;;;;;4.43;3.70;;;;;;;12.94;76.46;98177.66;5053485;28;20743;-75
2023/03/21 09:04:09;;;;;;;4.73;4.10;;;;;;;13.06;74.27;98166.09;5052605;28;20233;-76
2023/03/21 09:06:36;;;;;;;5.10;3.63;;;;;;;13.09;70.77;98155.28;5054317;28;20295;-76
2023/03/21 09:09:04;;;;;;;4.43;3.27;;;;;;;13.32;73.16;98167.56;5054440;28;20236;-76
2023/03/21 09:11:31;;;;;;;4.97;3.40;;;;;;;13.46;72.97;98164.66;5058865;28;20299;-76
2023/03/21 09:13:57;;;;;;;4.27;2.90;;;;;;;13.33;65.28;98132.09;5056944;28;20208;-76
2023/03/21 09:16:24;;;;;;;3.53;3.03;;;;;;;13.35;66.27;98146.06;5055855;28;20204;-77
2023/03/21 09:18:54;;;;;;;3.60;3.25;;;;;;;13.52;67.00;98153.53;5053486;28;20944;-76
2023/03/21 09:21:23;;;;;;;3.53;2.90;;;;;;;13.62;66.94;98155.31;5053808;28;20212;-75
2023/03/21 09:23:51;;;;;;;2.93;2.60;;;;;;;13.84;65.46;98149.09;5053856;28;20265;-76
2023/03/21 09:26:18;;;;;;;4.23;3.00;;;;;;;13.84;62.15;98127.84;5053965;28;20220;-74
2023/03/21 09:28:47;;;;;;;3.60;3.07;;;;;;;13.95;66.10;98162.34;5053425;28;20242;-75
2023/03/21 09:31:15;;;;;;;4.83;3.23;;;;;;;13.94;65.34;98150.06;5053552;28;20205;-76
2023/03/21 09:33:42;;;;;;;4.37;3.17;;;;;;;14.00;66.92;98160.16;5053748;28;20251;-75
2023/03/21 09:36:12;;;;;;;3.90;3.20;;;;;;;14.08;66.51;98153.25;5053650;28;20221;-75
2023/03/21 09:38:44;;;;;;;3.87;3.47;;;;;;;14.22;65.56;98157.44;5053449;28;20753;-78
2023/03/21 09:41:25;;;;;;;4.57;3.33;;;;;;;14.26;64.48;98145.59;5053303;28;20210;-82
2023/03/21 09:44:06;;;;;;;5.97;3.30;;;;;;;14.37;64.38;98142.88;5053485;28;20265;-80
2023/03/21 09:46:41;;;;;;;5.33;3.20;;;;;;;14.33;63.42;98141.44;5053645;28;20218;-79
2023/03/21 09:49:14;;;;;;;4.47;3.40;;;;;;;14.40;61.89;98130.16;5053262;28;20376;-79
2023/03/21 09:51:47;;;;;;;5.13;3.17;;;;;;;14.32;60.14;98115.81;5053275;28;20274;-77
2023/03/21 09:54:21;;;;;;;4.53;3.03;;;;;;;14.29;58.95;98108.13;5053253;28;20293;-75
2023/03/21 09:56:52;;;;;;;6.40;3.27;;;;;;;14.46;59.59;98115.50;5052475;28;20225;-77
2023/03/21 09:59:25;;;;;;;3.63;2.90;;;;;;;14.60;58.81;98109.88;5051550;28;20218;-77
2023/03/21 10:01:51;;;;;;;3.50;3.20;;;;;;;14.74;57.71;98105.00;5052388;28;20222;-76
2023/03/21 10:04:19;;;;;;;4.90;3.17;;;;;;;14.70;56.98;98086.78;5052195;28;20235;-78
2023/03/21 10:06:58;;;;;;;3.70;2.80;;;;;;;14.58;56.63;98085.19;5051690;28;20252;-77
2023/03/21 10:09:28;;;;;;;3.53;2.77;;;;;;;14.74;58.25;98101.53;5048408;28;20221;-79
2023/03/21 10:11:58;;;;;;;3.50;2.47;;;;;;;14.95;56.74;98086.34;5052359;28;20214;-77
2023/03/21 10:14:30;;;;;;;3.50;2.80;;;;;;;14.93;55.08;98072.34;5051937;28;20207;-77
2023/03/21 10:16:59;;;;;;;3.50;2.67;;;;;;;14.67;55.14;98058.63;5052189;28;20308;-79
2023/03/21 10:19:27;;;;;;;2.80;2.37;;;;;;;14.85;55.54;98069.53;5052411;28;20221;-78
2023/03/21 10:21:54;;;;;;;4.27;2.60;;;;;;;14.94;56.42;98069.56;5053049;28;20217;-78
2023/03/21 10:24:24;;;;;;;2.83;2.53;;;;;;;15.08;57.12;98076.31;5052602;28;20231;-77
2023/03/21 10:26:53;;;;;;;3.70;2.57;;;;;;;15.23;56.01;98074.97;5052072;28;20298;-78
2023/03/21 10:29:23;;;;;;;3.83;2.63;;;;;;;15.30;55.31;98068.97;5052138;28;20216;-78
2023/03/21 10:31:52;;;;;;;3.30;2.20;;;;;;;15.29;56.34;98069.09;5050850;28;20242;-76
2023/03/21 10:34:31;;;;;;;3.63;2.27;;;;;;;15.32;54.97;98053.72;5052172;28;20211;-76
2023/03/21 10:36:59;;;;;;;3.47;2.70;;;;;;;15.57;53.37;98041.72;5052098;28;20439;-75
2023/03/21 10:39:31;;;;;;;3.90;2.33;;;;;;;15.59;53.08;98029.09;5052143;28;20470;-75
2023/03/21 10:41:59;;;;;;;2.67;2.30;;;;;;;15.81;52.42;98029.66;5052700;28;20212;-77
2023/03/21 10:44:29;;;;;;;5.20;2.80;;;;;;;15.96;50.85;98016.75;5052416;28;20326;-77
2023/03/21 10:46:58;;;;;;;3.83;3.20;;;;;;;16.09;51.43;98024.28;5052466;28;20208;-77
2023/03/21 10:49:25;;;;;;;2.83;2.30;;;;;;;16.18;51.03;98026.13;5052051;28;20216;-77
2023/03/21 10:51:54;;;;;;;3.73;2.63;;;;;;;16.19;51.18;98025.13;5052265;28;20212;-78
2023/03/21 10:54:26;;;;;;;2.30;2.10;;;;;;;16.16;50.19;98020.06;5052430;28;20204;-76
2023/03/21 10:56:57;;;;;;;2.73;2.30;;;;;;;16.13;50.47;98023.03;5052051;28;20825;-75
2023/03/21 10:59:28;;;;;;;3.47;2.50;;;;;;;16.24;50.19;98027.34;5052096;28;20218;-76
2023/03/21 11:01:56;;;;;;;2.57;2.20;;;;;;;16.26;50.49;98031.56;5052190;28;20241;-76
2023/03/21 11:04:26;;;;;;;5.70;2.70;;;;;;;16.23;49.92;98017.69;5051890;28;20322;-80
2023/03/21 11:06:55;;;;;;;3.67;2.27;;;;;;;16.23;50.31;98021.19;5051889;28;20200;-76
2023/03/21 11:09:23;;;;;;;2.67;2.17;;;;;;;16.29;50.45;98020.63;5051870;28;20236;-76
2023/03/21 11:11:52;;;;;;;4.67;2.50;;;;;;;16.36;51.06;98031.53;5051885;28;20306;-77
2023/03/21 11:14:37;;;;;;;4.33;2.73;;;;;;;16.42;51.76;98031.00;5051794;28;20597;-80
2023/03/21 11:17:19;;;;;;;5.00;3.13;;;;;;;16.33;50.09;98015.84;5051717;28;20299;-78
2023/03/21 11:19:48;;;;;;;4.33;2.97;;;;;;;16.22;50.42;98019.50;5051682;28;20233;-78
2023/03/21 11:22:17;;;;;;;3.50;2.43;;;;;;;16.13;50.65;98022.16;5051834;28;20215;-78
2023/03/21 11:24:49;;;;;;;6.70;3.20;;;;;;;15.81;51.14;98016.31;5051315;28;20235;-77
2023/03/21 11:29:49;;;;;;;3.10;2.27;;;;;;;16.08;51.63;98022.59;5065346;28;20268;-79
2023/03/21 11:32:21;;;;;;;2.97;2.63;;;;;;;16.08;51.73;98026.25;5071186;28;20360;-79
2023/03/21 11:34:50;;;;;;;4.10;3.15;;;;;;;16.35;50.88;98014.69;5069344;28;20789;-76
2023/03/21 11:37:20;;;;;;;3.30;2.60;;;;;;;16.32;51.35;98014.97;5068811;28;20222;-78
2023/03/21 11:39:47;;;;;;;4.97;2.57;;;;;;;16.24;50.81;98014.03;5070923;28;20215;-80
2023/03/21 11:42:28;;;;;;;2.53;2.33;;;;;;;16.33;50.13;98003.31;5071649;28;20211;-80
2023/03/21 11:45:04;;;;;;;5.43;2.40;;;;;;;16.29;49.93;97999.28;5071381;28;20227;-80
2023/03/21 11:47:31;;;;;;;3.10;2.80;;;;;;;16.34;51.18;98005.00;5071545;28;20227;-80